Time;durP1;ratioP1;P1;durP2;ratioP2;P2;SDS_P1;SDS_P2;PMS_P1;PMS_P2;Temp;Humidity;BMP_temperature;BMP_pressure;BME280_temperature;BME280_humidity;BME280_pressure;Samples;Min_cycle;Max_cycle;Signal;HPM_P1;HPM_P2
2024/02/16 00:01:41;;;;;;;0.30;0.20;;;;;;;10.84;100.00;99992.63;5051806;28;20470;-50
2024/02/16 00:04:08;;;;;;;0.30;0.20;;;;;;;10.97;100.00;99996.63;5051996;28;20478;-50
2024/02/16 00:06:34;;;;;;;0.30;0.20;;;;;;;10.88;100.00;99996.06;5051921;28;20454;-49
2024/02/16 00:09:01;;;;;;;0.30;0.20;;;;;;;10.80;100.00;99990.13;5051880;28;20493;-49
2024/02/16 00:11:28;;;;;;;0.30;0.20;;;;;;;10.81;100.00;99990.06;5051950;28;20888;-50
2024/02/16 00:13:55;;;;;;;0.30;0.20;;;;;;;10.76;100.00;99981.38;5052549;28;20447;-49
2024/02/16 00:16:22;;;;;;;0.30;0.20;;;;;;;10.89;100.00;99973.84;5055712;28;20542;-49
2024/02/16 00:18:48;;;;;;;0.30;0.20;;;;;;;10.91;100.00;99991.50;5055715;28;20606;-50
2024/02/16 00:21:16;;;;;;;0.30;0.30;;;;;;;11.01;100.00;99988.53;5058672;28;20839;-50
2024/02/16 00:23:44;;;;;;;0.30;0.20;;;;;;;11.13;100.00;99982.78;5056009;28;20455;-50
2024/02/16 00:26:10;;;;;;;0.30;0.20;;;;;;;11.12;100.00;99979.25;5055436;28;20834;-50
2024/02/16 00:28:37;;;;;;;0.30;0.20;;;;;;;11.24;100.00;99977.94;5055078;28;20454;-50
2024/02/16 00:31:05;;;;;;;0.30;0.20;;;;;;;11.25;100.00;99982.31;5055288;28;20494;-50
2024/02/16 00:33:33;;;;;;;0.30;0.20;;;;;;;11.17;100.00;99984.38;5055036;28;20445;-50
2024/02/16 00:36:00;;;;;;;0.30;0.20;;;;;;;11.14;100.00;99982.72;5054977;28;20508;-50
2024/02/16 00:38:26;;;;;;;0.30;0.20;;;;;;;10.96;100.00;99986.91;5054806;28;20877;-50
2024/02/16 00:40:53;;;;;;;0.30;0.20;;;;;;;10.92;100.00;99989.69;5054982;28;21054;-50
2024/02/16 00:43:19;;;;;;;0.30;0.20;;;;;;;10.95;100.00;99982.47;5054976;28;20538;-50
2024/02/16 00:45:46;;;;;;;0.30;0.20;;;;;;;11.01;100.00;99991.19;5055174;28;20907;-50
2024/02/16 00:48:12;;;;;;;0.30;0.20;;;;;;;11.05;100.00;99991.00;5054578;28;20474;-50
2024/02/16 00:50:39;;;;;;;0.30;0.20;;;;;;;11.07;100.00;99996.25;5054715;28;20561;-50
2024/02/16 00:53:06;;;;;;;0.30;0.20;;;;;;;11.17;100.00;99993.22;5055041;28;20533;-50
2024/02/16 00:55:32;;;;;;;0.30;0.20;;;;;;;11.04;100.00;99994.59;5054776;28;20997;-50
2024/02/16 00:57:59;;;;;;;0.30;0.20;;;;;;;10.85;100.00;99990.84;5054891;28;20486;-50
2024/02/16 01:00:25;;;;;;;0.30;0.20;;;;;;;10.78;100.00;99987.50;5054853;28;20533;-50
2024/02/16 01:02:55;;;;;;;0.30;0.20;;;;;;;10.62;100.00;99984.50;5054314;28;20529;-49
2024/02/16 01:05:23;;;;;;;0.30;0.20;;;;;;;10.61;100.00;99993.41;5054854;28;20457;-50
2024/02/16 01:07:49;;;;;;;0.30;0.20;;;;;;;10.78;100.00;99995.50;5054448;28;20446;-50
2024/02/16 01:10:16;;;;;;;0.30;0.20;;;;;;;10.66;100.00;99985.28;5054438;28;20944;-50
2024/02/16 01:12:42;;;;;;;0.30;0.20;;;;;;;10.64;100.00;99987.13;5054688;28;20553;-50
2024/02/16 01:15:09;;;;;;;0.30;0.20;;;;;;;10.62;100.00;99984.50;5054415;28;21001;-50
2024/02/16 01:17:35;;;;;;;0.30;0.20;;;;;;;10.62;100.00;100000.47;5054247;28;20493;-50
2024/02/16 01:20:04;;;;;;;0.30;0.20;;;;;;;10.74;100.00;99988.56;5054216;28;20450;-50
2024/02/16 01:22:30;;;;;;;0.30;0.20;;;;;;;10.64;100.00;99990.63;5041399;28;20498;-50
2024/02/16 01:24:57;;;;;;;0.30;0.20;;;;;;;10.66;100.00;99990.59;5053492;28;21034;-50
2024/02/16 01:27:23;;;;;;;0.30;0.20;;;;;;;10.79;100.00;99999.00;5054108;28;20451;-50
2024/02/16 01:29:50;;;;;;;0.30;0.20;;;;;;;10.96;100.00;99997.53;5054084;28;20931;-50
2024/02/16 01:32:17;;;;;;;0.30;0.20;;;;;;;10.80;100.00;99987.47;5040419;28;20483;-50
2024/02/16 01:34:46;;;;;;;0.30;0.20;;;;;;;10.75;100.00;99990.28;5054255;28;20451;-50
2024/02/16 01:37:13;;;;;;;2.70;1.80;;;;;;;10.64;100.00;99987.13;5041032;28;20428;-49
2024/02/16 01:39:40;;;;;;;0.30;0.20;;;;;;;10.33;100.00;99980.16;5053872;28;20569;-50
2024/02/16 01:42:06;;;;;;;0.30;0.20;;;;;;;10.52;100.00;99984.88;5053924;28;20481;-50
2024/02/16 01:44:33;;;;;;;0.30;0.20;;;;;;;10.45;100.00;99981.56;5054103;28;20470;-50
2024/02/16 01:47:01;;;;;;;0.30;0.20;;;;;;;10.44;100.00;99984.28;5054005;28;20978;-50
2024/02/16 01:49:28;;;;;;;0.30;0.20;;;;;;;10.51;100.00;99981.34;5053848;28;20870;-50
2024/02/16 01:51:55;;;;;;;0.30;0.20;;;;;;;10.28;100.00;99978.56;5053771;28;20478;-50
2024/02/16 01:54:21;;;;;;;0.30;0.20;;;;;;;10.33;100.00;99982.81;5053807;28;20528;-50
2024/02/16 01:56:50;;;;;;;0.30;0.20;;;;;;;10.21;100.00;99983.22;5053611;28;20776;-50
2024/02/16 01:59:17;;;;;;;0.30;0.20;;;;;;;10.25;100.00;99986.63;5053484;28;20528;-50
2024/02/16 02:01:44;;;;;;;0.30;0.20;;;;;;;10.24;100.00;99988.44;5053747;28;20854;-50
2024/02/16 02:04:10;;;;;;;0.40;0.30;;;;;;;10.23;100.00;99985.81;5053513;28;20822;-50
2024/02/16 02:06:37;;;;;;;0.30;0.20;;;;;;;10.15;100.00;99985.19;5053618;28;20446;-50
2024/02/16 02:09:04;;;;;;;0.30;0.20;;;;;;;10.00;100.00;99982.06;5053566;28;20450;-50
2024/02/16 02:11:31;;;;;;;0.30;0.20;;;;;;;10.10;100.00;99980.00;5053284;28;20466;-49
2024/02/16 02:13:57;;;;;;;0.30;0.20;;;;;;;10.29;100.00;99978.53;5053534;28;20479;-50
2024/02/16 02:16:26;;;;;;;0.30;0.20;;;;;;;10.31;100.00;99976.69;5053819;28;20421;-50
2024/02/16 02:18:53;;;;;;;0.30;0.20;;;;;;;10.26;100.00;99981.28;5053584;28;20473;-50
2024/02/16 02:21:19;;;;;;;0.30;0.20;;;;;;;10.26;100.00;99969.78;5053702;28;20478;-50
2024/02/16 02:23:46;;;;;;;0.30;0.20;;;;;;;10.18;100.00;99963.81;5053214;28;20433;-50
2024/02/16 02:26:16;;;;;;;0.30;0.20;;;;;;;10.28;100.00;99968.84;5053040;28;20421;-50
2024/02/16 02:28:43;;;;;;;0.30;0.20;;;;;;;10.32;100.00;99970.47;5039984;28;20447;-50
2024/02/16 02:31:09;;;;;;;0.30;0.20;;;;;;;10.30;100.00;99974.09;5053156;28;20540;-50
2024/02/16 02:33:36;;;;;;;0.30;0.20;;;;;;;10.34;100.00;99973.94;5052829;28;20451;-50
2024/02/16 02:36:04;;;;;;;0.30;0.20;;;;;;;10.42;100.00;99973.69;5052508;28;20481;-50
2024/02/16 02:38:31;;;;;;;0.30;0.20;;;;;;;10.42;100.00;99967.50;5052373;28;20502;-50
2024/02/16 02:40:57;;;;;;;0.30;0.20;;;;;;;10.40;100.00;99978.16;5052673;28;20958;-50
2024/02/16 02:43:23;;;;;;;0.30;0.20;;;;;;;10.35;100.00;99978.31;5052951;28;20483;-50
2024/02/16 02:45:50;;;;;;;0.30;0.20;;;;;;;10.31;100.00;99974.03;5052955;28;20500;-50
2024/02/16 02:48:16;;;;;;;0.30;0.20;;;;;;;10.34;100.00;99976.59;5052482;28;20460;-50
2024/02/16 02:50:43;;;;;;;0.30;0.20;;;;;;;10.27;100.00;99969.72;5052389;28;20999;-50
2024/02/16 02:53:09;;;;;;;0.30;0.20;;;;;;;10.27;100.00;99968.84;5053109;28;20451;-51
2024/02/16 02:55:36;;;;;;;0.30;0.20;;;;;;;10.34;100.00;99971.28;5053032;28;20449;-51
2024/02/16 02:58:03;;;;;;;0.30;0.20;;;;;;;10.35;100.00;99970.34;5052440;28;20493;-50
2024/02/16 03:00:29;;;;;;;0.30;0.20;;;;;;;10.35;100.00;99975.66;5052645;28;20563;-50
2024/02/16 03:02:56;;;;;;;0.30;0.20;;;;;;;10.34;100.00;99973.94;5052265;28;20941;-50
2024/02/16 03:05:23;;;;;;;0.30;0.20;;;;;;;10.28;100.00;99971.50;5052367;28;20425;-50
2024/02/16 03:07:49;;;;;;;0.30;0.20;;;;;;;10.48;100.00;99972.59;5052038;28;20483;-50
2024/02/16 03:10:21;;;;;;;0.30;0.20;;;;;;;10.44;100.00;99979.81;5052535;28;20431;-51
2024/02/16 03:12:49;;;;;;;0.30;0.20;;;;;;;10.46;100.00;99982.44;5052448;28;20470;-51
2024/02/16 03:15:17;;;;;;;0.30;0.20;;;;;;;10.41;100.00;99984.34;5052360;28;20452;-51
2024/02/16 03:17:43;;;;;;;0.30;0.20;;;;;;;10.36;100.00;99971.22;5047479;28;20425;-50
2024/02/16 03:20:11;;;;;;;0.30;0.20;;;;;;;10.33;100.00;99977.50;5051912;28;20517;-51
2024/02/16 03:22:37;;;;;;;0.30;0.20;;;;;;;10.24;100.00;99972.47;5051896;28;20442;-51
2024/02/16 03:25:05;;;;;;;0.30;0.20;;;;;;;10.27;100.00;99966.19;5052148;28;20426;-51
2024/02/16 03:27:31;;;;;;;0.30;0.20;;;;;;;10.21;100.00;99967.28;5051798;28;20482;-50
2024/02/16 03:29:58;;;;;;;0.30;0.20;;;;;;;10.20;100.00;99970.81;5052062;28;20449;-50
2024/02/16 03:32:24;;;;;;;0.30;0.20;;;;;;;10.15;100.00;99966.59;5051765;28;20482;-51
2024/02/16 03:34:51;;;;;;;0.30;0.20;;;;;;;10.06;100.00;99967.75;5051685;28;20454;-51
2024/02/16 03:37:17;;;;;;;0.30;0.20;;;;;;;10.20;100.00;99960.19;5051938;28;20443;-51
2024/02/16 03:39:44;;;;;;;0.30;0.20;;;;;;;10.17;100.00;99962.09;5051777;28;20577;-51
2024/02/16 03:42:10;;;;;;;0.30;0.20;;;;;;;10.39;100.00;99971.13;5051931;28;20502;-50
2024/02/16 03:44:37;;;;;;;0.30;0.20;;;;;;;10.28;100.00;99970.59;5051911;28;20499;-50
2024/02/16 03:47:03;;;;;;;0.30;0.20;;;;;;;10.36;100.00;99976.53;5051427;28;21027;-50
2024/02/16 03:49:30;;;;;;;0.30;0.20;;;;;;;10.31;100.00;99983.81;5051322;28;20946;-50
2024/02/16 03:51:56;;;;;;;0.30;0.20;;;;;;;10.35;100.00;99980.13;5051662;28;20566;-50
2024/02/16 03:54:23;;;;;;;0.73;0.73;;;;;;;10.28;100.00;99981.22;5051346;28;20493;-50
2024/02/16 03:56:53;;;;;;;0.30;0.20;;;;;;;10.29;100.00;99977.66;5051743;28;20645;-50
2024/02/16 03:59:20;;;;;;;0.30;0.20;;;;;;;10.38;100.00;99980.88;5051460;28;20577;-50
2024/02/16 04:01:46;;;;;;;0.30;0.20;;;;;;;10.24;100.00;99982.25;5051517;28;20480;-50
2024/02/16 04:04:13;;;;;;;0.30;0.20;;;;;;;10.21;100.00;99977.00;5051233;28;20574;-50
2024/02/16 04:06:39;;;;;;;0.30;0.20;;;;;;;10.28;100.00;99989.19;5051559;28;20956;-50
2024/02/16 04:09:06;;;;;;;0.30;0.20;;;;;;;10.22;100.00;99984.09;5051591;28;20446;-50
2024/02/16 04:11:33;;;;;;;0.30;0.20;;;;;;;10.21;100.00;99977.91;5051580;28;20557;-50
2024/02/16 04:14:00;;;;;;;0.30;0.20;;;;;;;10.19;100.00;99976.19;5051349;28;20454;-51
2024/02/16 04:16:27;;;;;;;0.30;0.20;;;;;;;10.15;100.00;99983.41;5051311;28;20447;-51
2024/02/16 04:18:55;;;;;;;0.30;0.20;;;;;;;10.23;100.00;99981.38;5051399;28;20580;-51
2024/02/16 04:21:21;;;;;;;0.30;0.20;;;;;;;10.10;100.00;99980.00;5051452;28;20827;-50
2024/02/16 04:23:48;;;;;;;0.30;0.20;;;;;;;10.20;100.00;99984.09;5051516;28;20453;-51
2024/02/16 04:26:15;;;;;;;0.30;0.20;;;;;;;10.18;100.00;99985.94;5051022;28;20453;-50
2024/02/16 04:28:41;;;;;;;0.30;0.20;;;;;;;10.28;100.00;99987.44;5051184;28;20538;-51
2024/02/16 04:31:08;;;;;;;0.30;0.20;;;;;;;10.17;100.00;99976.25;5051191;28;20536;-50
2024/02/16 04:33:34;;;;;;;0.30;0.20;;;;;;;10.15;100.00;99986.06;5051110;28;20486;-50
2024/02/16 04:36:01;;;;;;;0.30;0.20;;;;;;;10.26;100.00;99991.91;5051469;28;20417;-50
2024/02/16 04:38:28;;;;;;;0.30;0.20;;;;;;;10.22;100.00;99979.63;5050907;28;20896;-50
2024/02/16 04:40:54;;;;;;;0.30;0.20;;;;;;;10.22;100.00;99981.44;5051217;28;20470;-50
2024/02/16 04:43:21;;;;;;;0.30;0.20;;;;;;;10.27;100.00;99979.47;5051099;28;20496;-50
2024/02/16 04:45:47;;;;;;;0.30;0.20;;;;;;;10.17;100.00;99980.69;5051106;28;20545;-50
2024/02/16 04:48:14;;;;;;;0.30;0.20;;;;;;;10.09;100.00;99981.78;5050974;28;20451;-51
2024/02/16 04:50:41;;;;;;;0.30;0.20;;;;;;;10.22;100.00;99979.63;5050865;28;20450;-50
2024/02/16 04:53:08;;;;;;;0.30;0.20;;;;;;;10.27;100.00;99983.00;5050861;28;20872;-50
2024/02/16 04:55:34;;;;;;;0.30;0.20;;;;;;;10.30;100.00;99985.59;5051078;28;20508;-50
2024/02/16 04:58:04;;;;;;;0.30;0.20;;;;;;;10.36;100.00;99990.69;5050882;28;20932;-50
2024/02/16 05:00:31;;;;;;;0.30;0.20;;;;;;;10.22;100.00;99994.72;5052517;28;20479;-50
2024/02/16 05:02:57;;;;;;;0.30;0.20;;;;;;;10.09;100.00;99994.19;5054655;28;20451;-50
2024/02/16 05:05:25;;;;;;;0.30;0.20;;;;;;;10.06;100.00;99994.28;5054629;28;20975;-51
2024/02/16 05:07:51;;;;;;;0.30;0.20;;;;;;;10.07;100.00;100001.34;5054565;28;20471;-50
2024/02/16 05:10:19;;;;;;;0.30;0.20;;;;;;;10.09;100.00;100005.69;5054529;28;20445;-50
2024/02/16 05:12:46;;;;;;;0.30;0.20;;;;;;;10.07;100.00;100002.22;5054509;28;20450;-49
2024/02/16 05:15:16;;;;;;;0.30;0.20;;;;;;;10.09;100.00;100003.03;5054590;28;20888;-50
2024/02/16 05:17:51;;;;;;;0.30;0.20;;;;;;;10.46;100.00;100006.34;5054389;28;20557;-50
2024/02/16 05:20:19;;;;;;;0.30;0.20;;;;;;;10.65;100.00;100010.97;5054288;28;20579;-50
2024/02/16 05:22:46;;;;;;;0.30;0.20;;;;;;;10.43;100.00;100009.09;5054386;28;20541;-50
2024/02/16 05:25:13;;;;;;;0.30;0.20;;;;;;;10.29;100.00;100005.09;5054028;28;20446;-50
2024/02/16 05:27:40;;;;;;;0.30;0.20;;;;;;;10.33;100.00;100008.53;5053943;28;20454;-50
2024/02/16 05:30:12;;;;;;;0.30;0.20;;;;;;;10.10;100.00;100006.56;5054243;28;20538;-50
2024/02/16 05:32:39;;;;;;;0.30;0.20;;;;;;;10.20;100.00;100001.81;5054068;28;20498;-51
2024/02/16 05:35:14;;;;;;;0.30;0.20;;;;;;;10.36;100.00;100005.75;5054025;28;21019;-50
2024/02/16 05:37:44;;;;;;;0.30;0.20;;;;;;;10.18;100.00;100011.63;5053891;28;20928;-50
2024/02/16 05:40:30;;;;;;;0.30;0.20;;;;;;;10.15;100.00;99999.34;5053859;28;20487;-50
2024/02/16 05:43:00;;;;;;;0.30;0.20;;;;;;;10.04;100.00;100002.31;5054131;28;20478;-50
2024/02/16 05:45:27;;;;;;;0.30;0.20;;;;;;;10.07;100.00;100004.00;5054091;28;20814;-50
2024/02/16 05:47:54;;;;;;;0.30;0.20;;;;;;;10.22;100.00;100006.19;5053743;28;20454;-51
2024/02/16 05:50:21;;;;;;;0.30;0.20;;;;;;;10.08;100.00;99998.63;5053742;28;20450;-50
2024/02/16 05:52:49;;;;;;;0.30;0.20;;;;;;;10.14;100.00;99999.34;5053433;28;20463;-50
2024/02/16 05:55:18;;;;;;;0.30;0.20;;;;;;;10.07;100.00;99999.56;5053805;28;20986;-49
2024/02/16 05:57:45;;;;;;;0.30;0.20;;;;;;;10.13;100.00;100000.25;5053589;28;20914;-50
2024/02/16 06:00:13;;;;;;;0.30;0.20;;;;;;;10.04;100.00;99996.13;5053547;28;20573;-50
2024/02/16 06:02:40;;;;;;;0.30;0.20;;;;;;;10.06;100.00;99994.28;5053197;28;20471;-50
2024/02/16 06:05:07;;;;;;;0.30;0.20;;;;;;;10.09;100.00;99995.06;5053705;28;20455;-50
2024/02/16 06:07:37;;;;;;;0.30;0.20;;;;;;;10.10;100.00;99991.47;5053435;28;20447;-50
2024/02/16 06:10:07;;;;;;;0.30;0.20;;;;;;;10.09;100.00;99994.19;5053530;28;20533;-50
2024/02/16 06:12:36;;;;;;;0.30;0.20;;;;;;;10.14;100.00;99991.38;5053011;28;20920;-50
2024/02/16 06:15:03;;;;;;;0.30;0.20;;;;;;;10.00;100.00;99983.84;5053406;28;20567;-50
2024/02/16 06:17:30;;;;;;;0.30;0.20;;;;;;;10.11;100.00;100000.31;5052892;28;20461;-51
2024/02/16 06:19:56;;;;;;;0.30;0.20;;;;;;;10.08;100.00;100003.06;5053365;28;20498;-50
2024/02/16 06:22:23;;;;;;;0.30;0.20;;;;;;;10.10;100.00;100003.91;5053154;28;20467;-50
2024/02/16 06:24:50;;;;;;;0.30;0.20;;;;;;;10.16;100.00;100011.69;5053332;28;20546;-51
2024/02/16 06:27:16;;;;;;;0.30;0.20;;;;;;;10.22;100.00;100011.50;5052706;28;20446;-50
2024/02/16 06:29:43;;;;;;;0.30;0.20;;;;;;;10.17;100.00;100015.22;5052983;28;20454;-50
2024/02/16 06:32:12;;;;;;;0.40;0.30;;;;;;;10.10;100.00;100023.34;5052757;28;20968;-50
2024/02/16 06:34:38;;;;;;;0.30;0.20;;;;;;;10.10;100.00;100011.84;5053013;28;20509;-50
2024/02/16 06:37:05;;;;;;;0.30;0.20;;;;;;;9.96;100.00;100025.56;5052763;28;20951;-50
2024/02/16 06:39:31;;;;;;;0.30;0.20;;;;;;;9.93;100.00;100032.75;5052859;28;20540;-49
2024/02/16 06:41:59;;;;;;;0.30;0.20;;;;;;;9.76;100.00;100034.13;5052834;28;21015;-50
2024/02/16 06:44:25;;;;;;;0.30;0.20;;;;;;;9.87;100.00;100044.44;5052544;28;20534;-49
2024/02/16 06:46:52;;;;;;;0.30;0.20;;;;;;;9.83;100.00;100049.88;5052839;28;20521;-50
2024/02/16 06:49:18;;;;;;;0.30;0.20;;;;;;;9.80;100.00;100050.84;5052345;28;20454;-50
2024/02/16 06:51:45;;;;;;;0.30;0.20;;;;;;;9.82;100.00;100042.81;5052513;28;20557;-51
2024/02/16 06:54:12;;;;;;;0.30;0.20;;;;;;;9.81;100.00;100049.91;5052488;28;20504;-50
2024/02/16 06:56:38;;;;;;;0.30;0.20;;;;;;;9.92;100.00;100049.59;5052597;28;20457;-51
2024/02/16 06:59:05;;;;;;;0.30;0.20;;;;;;;9.83;100.00;100044.56;5052156;28;20962;-50
2024/02/16 07:01:32;;;;;;;0.30;0.20;;;;;;;9.87;100.00;100047.09;5052520;28;20474;-51
2024/02/16 07:03:58;;;;;;;0.30;0.20;;;;;;;10.10;100.00;100057.00;5052370;28;20447;-51
2024/02/16 07:06:26;;;;;;;0.30;0.20;;;;;;;10.22;100.00;100064.63;5052317;28;20493;-51
2024/02/16 07:08:52;;;;;;;0.30;0.20;;;;;;;10.20;100.00;100070.88;5051040;28;20447;-51
2024/02/16 07:11:20;;;;;;;0.40;0.30;;;;;;;10.17;100.00;100066.53;5052233;28;20558;-51
2024/02/16 07:13:47;;;;;;;0.30;0.20;;;;;;;10.22;100.00;100066.44;5050876;28;20501;-50
2024/02/16 07:16:14;;;;;;;0.30;0.20;;;;;;;10.29;100.00;100074.19;5052341;28;20509;-51
2024/02/16 07:18:41;;;;;;;0.30;0.20;;;;;;;10.23;100.00;100079.66;5051916;28;20497;-51
2024/02/16 07:21:09;;;;;;;0.30;0.20;;;;;;;10.15;100.00;100072.81;5052486;28;20895;-50
2024/02/16 07:23:35;;;;;;;0.30;0.20;;;;;;;10.30;100.00;100086.53;5051527;28;20457;-51
2024/02/16 07:26:02;;;;;;;0.30;0.20;;;;;;;10.34;100.00;100080.19;5051859;28;20451;-50
2024/02/16 07:28:33;;;;;;;0.30;0.20;;;;;;;10.33;100.00;100077.59;5052056;28;20852;-50
2024/02/16 07:30:59;;;;;;;0.30;0.20;;;;;;;10.46;100.00;100080.75;5052080;28;20463;-50
2024/02/16 07:33:28;;;;;;;1.70;1.70;;;;;;;10.49;100.00;100085.94;5051659;28;20869;-51
2024/02/16 07:35:55;;;;;;;0.97;0.97;;;;;;;10.50;100.00;100080.59;5051832;28;20994;-50
2024/02/16 07:38:21;;;;;;;0.30;0.20;;;;;;;10.61;100.00;100086.44;5051708;28;20494;-50
2024/02/16 07:40:50;;;;;;;0.30;0.20;;;;;;;10.66;100.00;100078.31;5051547;28;20999;-51
2024/02/16 07:43:17;;;;;;;0.30;0.20;;;;;;;10.70;100.00;100079.97;5051895;28;20454;-51
2024/02/16 07:45:44;;;;;;;0.30;0.20;;;;;;;10.75;100.00;100077.16;5051879;28;20529;-50
2024/02/16 07:48:10;;;;;;;0.30;0.20;;;;;;;10.80;100.00;100084.03;5051514;28;20486;-51
2024/02/16 07:50:37;;;;;;;0.30;0.20;;;;;;;10.75;100.00;100080.69;5051435;28;20489;-50
2024/02/16 07:53:04;;;;;;;0.30;0.20;;;;;;;10.73;100.00;100081.66;5051554;28;20453;-50
2024/02/16 07:55:30;;;;;;;0.60;0.60;;;;;;;10.78;100.00;100087.66;5051709;28;20473;-50
2024/02/16 07:57:57;;;;;;;0.30;0.20;;;;;;;10.77;100.00;100083.28;5051521;28;20474;-51
2024/02/16 08:00:23;;;;;;;0.30;0.20;;;;;;;10.83;100.00;100091.94;5051544;28;20580;-50
2024/02/16 08:02:50;;;;;;;0.30;0.20;;;;;;;10.95;100.00;100098.63;5051189;28;20465;-50
2024/02/16 08:05:18;;;;;;;0.30;0.20;;;;;;;10.95;100.00;100102.16;5051557;28;20473;-50
2024/02/16 08:07:46;;;;;;;0.40;0.30;;;;;;;11.00;100.00;100103.81;5051307;28;20508;-50
2024/02/16 08:10:14;;;;;;;0.30;0.20;;;;;;;11.01;100.00;100095.78;5051316;28;20813;-50
2024/02/16 08:12:40;;;;;;;0.40;0.20;;;;;;;11.11;100.00;100101.66;5050219;28;20499;-50
2024/02/16 08:15:08;;;;;;;0.30;0.20;;;;;;;11.16;100.00;100092.59;5051466;28;20455;-51
2024/02/16 08:17:35;;;;;;;0.30;0.20;;;;;;;11.15;100.00;100100.63;5051143;28;20482;-50
2024/02/16 08:20:01;;;;;;;0.30;0.30;;;;;;;11.17;100.00;100096.13;5051237;28;20548;-51
2024/02/16 08:22:28;;;;;;;0.30;0.20;;;;;;;11.27;100.00;100098.41;5051073;28;20840;-50
2024/02/16 08:24:55;;;;;;;0.30;0.20;;;;;;;11.25;100.00;100099.41;5051470;28;20474;-50
2024/02/16 08:27:22;;;;;;;0.30;0.20;;;;;;;11.28;100.00;100093.97;5050911;28;20421;-50
2024/02/16 08:29:49;;;;;;;0.30;0.20;;;;;;;11.26;100.00;100095.81;5051157;28;20542;-50
2024/02/16 08:32:16;;;;;;;0.30;0.20;;;;;;;11.44;100.00;100100.47;5050979;28;20474;-50
2024/02/16 08:34:43;;;;;;;0.30;0.20;;;;;;;11.45;100.00;100109.34;5051430;28;20484;-51
2024/02/16 08:37:11;;;;;;;0.30;0.20;;;;;;;11.47;100.00;100104.81;5055015;28;20756;-51
2024/02/16 08:39:38;;;;;;;0.30;0.20;;;;;;;11.73;100.00;100098.56;5055140;28;20494;-51
2024/02/16 08:42:05;;;;;;;0.30;0.20;;;;;;;11.63;100.00;100105.13;5055455;28;20515;-51
2024/02/16 08:44:32;;;;;;;0.30;0.20;;;;;;;11.64;100.00;100110.41;5055156;28;20458;-50
2024/02/16 08:46:58;;;;;;;0.30;0.20;;;;;;;11.70;100.00;100110.22;5055064;28;20533;-50
2024/02/16 08:49:25;;;;;;;0.30;0.20;;;;;;;11.74;100.00;100110.97;5054737;28;20461;-50
2024/02/16 08:51:51;;;;;;;0.30;0.20;;;;;;;11.79;100.00;100117.03;5055225;28;20482;-50
2024/02/16 08:54:18;;;;;;;1.53;1.43;;;;;;;11.76;100.00;100122.41;5055021;28;20444;-50
2024/02/16 08:56:45;;;;;;;0.30;0.20;;;;;;;11.71;100.00;100122.59;5054683;28;20927;-49
2024/02/16 08:59:12;;;;;;;0.30;0.20;;;;;;;11.84;100.00;100123.06;5054829;28;20450;-50
2024/02/16 09:01:39;;;;;;;0.30;0.20;;;;;;;11.82;100.00;100123.13;5054549;28;20490;-50
2024/02/16 09:04:06;;;;;;;0.30;0.20;;;;;;;11.86;100.00;100132.72;5054370;28;20476;-50
2024/02/16 09:06:34;;;;;;;0.30;0.20;;;;;;;11.90;100.00;100135.25;5054825;28;20425;-51
2024/02/16 09:09:02;;;;;;;0.30;0.20;;;;;;;11.95;100.00;100136.00;5054920;28;20455;-50
2024/02/16 09:11:28;;;;;;;0.30;0.20;;;;;;;11.82;100.00;100136.44;5054569;28;20441;-51
2024/02/16 09:13:55;;;;;;;0.30;0.20;;;;;;;11.98;100.00;100135.88;5054470;28;20450;-51
2024/02/16 09:16:21;;;;;;;0.30;0.20;;;;;;;11.84;100.00;100139.91;5054487;28;20429;-51
2024/02/16 09:18:50;;;;;;;0.30;0.20;;;;;;;11.96;100.00;100146.59;5054504;28;20429;-51
2024/02/16 09:21:17;;;;;;;0.30;0.20;;;;;;;11.99;100.00;100153.59;5054487;28;20494;-51
2024/02/16 09:23:44;;;;;;;0.30;0.20;;;;;;;12.06;100.00;100149.75;5054367;28;20429;-50
2024/02/16 09:26:10;;;;;;;0.30;0.20;;;;;;;12.12;100.00;100155.75;5054997;28;20450;-50
2024/02/16 09:28:44;;;;;;;0.30;0.20;;;;;;;12.26;100.00;100157.03;5054973;28;20858;-50
2024/02/16 09:31:14;;;;;;;0.30;0.20;;;;;;;12.34;100.00;100160.28;5054444;28;20954;-51
2024/02/16 09:33:40;;;;;;;0.30;0.20;;;;;;;12.41;100.00;100151.97;5054310;28;20509;-50
2024/02/16 09:36:07;;;;;;;0.30;0.20;;;;;;;12.34;100.00;100152.28;5054413;28;20428;-50
2024/02/16 09:38:34;;;;;;;0.90;0.90;;;;;;;12.39;100.00;100143.19;5054096;28;20843;-51
2024/02/16 09:41:02;;;;;;;0.30;0.20;;;;;;;12.43;100.00;100154.59;5053859;28;20479;-50
2024/02/16 09:43:30;;;;;;;0.30;0.20;;;;;;;12.46;100.00;100154.47;5053723;28;20841;-50
2024/02/16 09:45:58;;;;;;;0.30;0.20;;;;;;;12.51;100.00;100159.63;5053224;28;20466;-50
2024/02/16 09:48:26;;;;;;;0.30;0.20;;;;;;;12.51;100.00;100157.84;5053795;28;20429;-51
2024/02/16 09:50:55;;;;;;;0.30;0.20;;;;;;;12.56;100.00;100163.84;5053844;28;20484;-51
2024/02/16 09:53:24;;;;;;;0.30;0.20;;;;;;;12.65;100.00;100167.97;5053980;28;20534;-50
2024/02/16 09:55:51;;;;;;;1.03;1.03;;;;;;;12.74;100.00;100168.44;5053510;28;21065;-50
2024/02/16 09:58:20;;;;;;;0.33;0.20;;;;;;;12.90;100.00;100170.53;5053552;28;20517;-51
2024/02/16 10:00:51;;;;;;;0.30;0.20;;;;;;;12.94;100.00;100173.00;5053612;28;20498;-50
2024/02/16 10:03:28;;;;;;;0.50;0.50;;;;;;;13.10;100.00;100167.91;5053560;28;20451;-51
2024/02/16 10:06:08;;;;;;;0.30;0.20;;;;;;;13.21;100.00;100170.19;5053775;28;20422;-51
2024/02/16 10:08:57;;;;;;;0.30;0.20;;;;;;;13.35;100.00;100167.81;5053496;28;20448;-50
2024/02/16 10:11:30;;;;;;;0.30;0.20;;;;;;;13.43;100.00;100167.47;5043650;28;20437;-51
2024/02/16 10:13:59;;;;;;;0.40;0.40;;;;;;;13.59;100.00;100184.59;5053374;28;20453;-51
2024/02/16 10:16:27;;;;;;;0.43;0.43;;;;;;;13.70;100.00;100168.97;5053309;28;20451;-50
2024/02/16 10:18:56;;;;;;;0.30;0.20;;;;;;;13.75;100.00;100187.47;5053028;28;20513;-51
2024/02/16 10:21:27;;;;;;;0.30;0.20;;;;;;;13.75;100.00;100183.00;5053134;28;20546;-51
2024/02/16 10:24:11;;;;;;;0.30;0.20;;;;;;;13.90;99.66;100185.00;5053181;28;20457;-50
2024/02/16 10:26:38;;;;;;;0.30;0.20;;;;;;;13.96;99.86;100180.31;5053898;28;20421;-50
2024/02/16 10:29:09;;;;;;;0.30;0.20;;;;;;;14.10;99.56;100185.91;5053153;28;20421;-50
2024/02/16 10:31:36;;;;;;;0.30;0.20;;;;;;;14.18;98.61;100181.97;5052734;28;20995;-51
2024/02/16 10:34:05;;;;;;;0.30;0.20;;;;;;;14.23;97.81;100184.44;5053126;28;20451;-51
2024/02/16 10:36:34;;;;;;;0.30;0.20;;;;;;;14.42;96.98;100190.69;5053051;28;20454;-51
2024/02/16 10:39:05;;;;;;;0.30;0.20;;;;;;;14.48;95.72;100192.22;5053071;28;20456;-51
2024/02/16 10:41:37;;;;;;;0.30;0.20;;;;;;;14.56;94.66;100194.56;5052907;28;20773;-51
2024/02/16 10:44:05;;;;;;;0.30;0.20;;;;;;;14.61;93.91;100188.06;5052679;28;20504;-51
2024/02/16 10:46:32;;;;;;;0.30;0.20;;;;;;;14.81;94.71;100195.16;5052834;28;20461;-51
2024/02/16 10:48:59;;;;;;;0.30;0.20;;;;;;;14.83;93.34;100190.59;5052940;28;20450;-51
2024/02/16 10:51:48;;;;;;;0.30;0.20;;;;;;;14.77;94.48;100198.91;5052540;28;20464;-51
2024/02/16 10:54:19;;;;;;;0.40;0.40;;;;;;;14.93;93.59;100199.91;5052452;28;20901;-51
2024/02/16 10:56:46;;;;;;;0.30;0.30;;;;;;;14.94;93.20;100199.00;5052411;28;20421;-51
2024/02/16 10:59:12;;;;;;;0.30;0.20;;;;;;;15.01;92.04;100204.91;5051973;28;20524;-51
2024/02/16 11:01:40;;;;;;;0.30;0.20;;;;;;;15.24;91.86;100201.97;5052495;28;20577;-51
2024/02/16 11:04:09;;;;;;;0.30;0.20;;;;;;;15.20;91.16;100204.84;5052205;28;20541;-50
2024/02/16 11:06:54;;;;;;;0.30;0.20;;;;;;;15.10;91.38;100205.34;5052579;28;20822;-50
2024/02/16 11:09:39;;;;;;;0.30;0.20;;;;;;;15.38;90.87;100202.16;5052207;28;20450;-50
2024/02/16 11:12:15;;;;;;;0.30;0.20;;;;;;;15.34;91.27;100200.56;5052028;28;20448;-50
2024/02/16 11:14:47;;;;;;;0.30;0.20;;;;;;;15.39;89.85;100195.00;5052403;28;20485;-50
2024/02/16 11:17:15;;;;;;;0.30;0.20;;;;;;;15.54;89.79;100207.63;5052176;28;20479;-50
2024/02/16 11:19:44;;;;;;;0.43;0.40;;;;;;;15.63;89.72;100201.84;5052086;28;20538;-50
2024/02/16 11:22:14;;;;;;;0.30;0.20;;;;;;;15.64;88.73;100198.22;5052013;28;20473;-51
2024/02/16 11:24:45;;;;;;;1.37;1.33;;;;;;;16.03;88.09;100199.75;5052340;28;20454;-51